sensor_id;sensor_type;location;lat;lon;timestamp;P1;durP1;ratioP1;P2;durP2;ratioP2
73132;SDS011;61320;52.008;4.530;2023-09-19T00:00:04;3.41;;;2.82;;
73132;SDS011;61320;52.008;4.530;2023-09-19T00:02:32;3.21;;;2.65;;
73132;SDS011;61320;52.008;4.530;2023-09-19T00:04:58;3.45;;;2.81;;
73132;SDS011;61320;52.008;4.530;2023-09-19T00:07:23;3.42;;;2.75;;
73132;SDS011;61320;52.008;4.530;2023-09-19T00:09:49;3.53;;;2.80;;
73132;SDS011;61320;52.008;4.530;2023-09-19T00:12:15;3.92;;;3.03;;
73132;SDS011;61320;52.008;4.530;2023-09-19T00:14:40;3.79;;;2.92;;
73132;SDS011;61320;52.008;4.530;2023-09-19T00:17:06;3.78;;;2.97;;
73132;SDS011;61320;52.008;4.530;2023-09-19T00:19:36;4.30;;;3.35;;
73132;SDS011;61320;52.008;4.530;2023-09-19T00:22:03;3.82;;;3.03;;
73132;SDS011;61320;52.008;4.530;2023-09-19T00:24:29;3.65;;;2.85;;
73132;SDS011;61320;52.008;4.530;2023-09-19T00:26:55;3.68;;;2.89;;
73132;SDS011;61320;52.008;4.530;2023-09-19T00:29:22;3.67;;;2.87;;
73132;SDS011;61320;52.008;4.530;2023-09-19T00:31:48;3.73;;;2.93;;
73132;SDS011;61320;52.008;4.530;2023-09-19T00:34:15;3.92;;;3.01;;
73132;SDS011;61320;52.008;4.530;2023-09-19T00:36:42;3.60;;;2.75;;
73132;SDS011;61320;52.008;4.530;2023-09-19T00:39:08;3.27;;;2.54;;
73132;SDS011;61320;52.008;4.530;2023-09-19T00:41:35;3.82;;;2.96;;
73132;SDS011;61320;52.008;4.530;2023-09-19T00:44:02;3.68;;;2.86;;
73132;SDS011;61320;52.008;4.530;2023-09-19T00:46:30;3.23;;;2.56;;
73132;SDS011;61320;52.008;4.530;2023-09-19T00:48:57;3.98;;;3.14;;
73132;SDS011;61320;52.008;4.530;2023-09-19T00:51:24;3.80;;;3.00;;
73132;SDS011;61320;52.008;4.530;2023-09-19T00:53:52;4.02;;;3.19;;
73132;SDS011;61320;52.008;4.530;2023-09-19T00:56:19;4.00;;;3.13;;
73132;SDS011;61320;52.008;4.530;2023-09-19T00:58:45;4.00;;;3.09;;
73132;SDS011;61320;52.008;4.530;2023-09-19T01:01:12;4.35;;;3.36;;
73132;SDS011;61320;52.008;4.530;2023-09-19T01:03:40;4.54;;;3.48;;
73132;SDS011;61320;52.008;4.530;2023-09-19T01:06:06;4.90;;;3.68;;
73132;SDS011;61320;52.008;4.530;2023-09-19T01:08:32;4.91;;;3.68;;
73132;SDS011;61320;52.008;4.530;2023-09-19T01:13:56;5.18;;;3.85;;
73132;SDS011;61320;52.008;4.530;2023-09-19T01:16:36;5.32;;;3.96;;
73132;SDS011;61320;52.008;4.530;2023-09-19T01:30:52;5.74;;;4.02;;
73132;SDS011;61320;52.008;4.530;2023-09-19T01:33:25;6.52;;;4.48;;
73132;SDS011;61320;52.008;4.530;2023-09-19T01:35:51;6.27;;;4.28;;
73132;SDS011;61320;52.008;4.530;2023-09-19T01:38:18;6.50;;;4.42;;
73132;SDS011;61320;52.008;4.530;2023-09-19T01:40:49;6.38;;;4.35;;
73132;SDS011;61320;52.008;4.530;2023-09-19T01:43:32;6.85;;;4.62;;
73132;SDS011;61320;52.008;4.530;2023-09-19T01:46:09;7.25;;;4.86;;
73132;SDS011;61320;52.008;4.530;2023-09-19T01:54:04;6.72;;;4.41;;
73132;SDS011;61320;52.008;4.530;2023-09-19T01:56:49;7.86;;;5.18;;
73132;SDS011;61320;52.008;4.530;2023-09-19T01:59:28;7.38;;;4.85;;
73132;SDS011;61320;52.008;4.530;2023-09-19T02:02:03;8.63;;;5.59;;
73132;SDS011;61320;52.008;4.530;2023-09-19T02:04:32;7.40;;;4.78;;
73132;SDS011;61320;52.008;4.530;2023-09-19T02:07:00;7.63;;;4.94;;
73132;SDS011;61320;52.008;4.530;2023-09-19T02:09:26;7.04;;;4.57;;
73132;SDS011;61320;52.008;4.530;2023-09-19T02:11:52;7.03;;;4.54;;
73132;SDS011;61320;52.008;4.530;2023-09-19T02:14:17;6.67;;;4.31;;
73132;SDS011;61320;52.008;4.530;2023-09-19T02:16:44;6.35;;;4.19;;
73132;SDS011;61320;52.008;4.530;2023-09-19T02:19:10;6.54;;;4.32;;
73132;SDS011;61320;52.008;4.530;2023-09-19T02:21:36;6.48;;;4.28;;
73132;SDS011;61320;52.008;4.530;2023-09-19T02:24:02;6.61;;;4.34;;
73132;SDS011;61320;52.008;4.530;2023-09-19T02:26:28;6.20;;;4.17;;
73132;SDS011;61320;52.008;4.530;2023-09-19T02:28:53;6.27;;;4.17;;
73132;SDS011;61320;52.008;4.530;2023-09-19T02:31:19;6.59;;;4.33;;
73132;SDS011;61320;52.008;4.530;2023-09-19T02:33:44;6.34;;;4.21;;
73132;SDS011;61320;52.008;4.530;2023-09-19T02:36:11;5.92;;;3.94;;
73132;SDS011;61320;52.008;4.530;2023-09-19T02:38:36;5.32;;;3.65;;
73132;SDS011;61320;52.008;4.530;2023-09-19T02:41:02;5.98;;;4.10;;
73132;SDS011;61320;52.008;4.530;2023-09-19T02:43:28;5.93;;;4.10;;
73132;SDS011;61320;52.008;4.530;2023-09-19T02:45:54;5.07;;;3.58;;
73132;SDS011;61320;52.008;4.530;2023-09-19T02:48:20;5.00;;;3.54;;
73132;SDS011;61320;52.008;4.530;2023-09-19T02:50:46;5.56;;;3.92;;
73132;SDS011;61320;52.008;4.530;2023-09-19T02:53:14;5.11;;;3.60;;
73132;SDS011;61320;52.008;4.530;2023-09-19T02:55:40;5.15;;;3.64;;
73132;SDS011;61320;52.008;4.530;2023-09-19T02:58:05;4.59;;;3.26;;
73132;SDS011;61320;52.008;4.530;2023-09-19T03:00:36;5.03;;;3.54;;
73132;SDS011;61320;52.008;4.530;2023-09-19T03:03:03;5.24;;;3.65;;
73132;SDS011;61320;52.008;4.530;2023-09-19T03:05:30;5.31;;;3.63;;
73132;SDS011;61320;52.008;4.530;2023-09-19T03:07:56;5.20;;;3.50;;
73132;SDS011;61320;52.008;4.530;2023-09-19T03:10:22;5.12;;;3.55;;
73132;SDS011;61320;52.008;4.530;2023-09-19T03:12:48;4.19;;;2.95;;
73132;SDS011;61320;52.008;4.530;2023-09-19T03:15:14;4.93;;;3.43;;
73132;SDS011;61320;52.008;4.530;2023-09-19T03:17:44;5.06;;;3.52;;
73132;SDS011;61320;52.008;4.530;2023-09-19T03:20:10;4.96;;;3.49;;
73132;SDS011;61320;52.008;4.530;2023-09-19T03:22:38;5.09;;;3.53;;
73132;SDS011;61320;52.008;4.530;2023-09-19T03:25:05;5.32;;;3.70;;
73132;SDS011;61320;52.008;4.530;2023-09-19T03:27:37;4.81;;;3.33;;
73132;SDS011;61320;52.008;4.530;2023-09-19T03:30:03;4.35;;;3.07;;
73132;SDS011;61320;52.008;4.530;2023-09-19T03:32:47;4.48;;;3.20;;
73132;SDS011;61320;52.008;4.530;2023-09-19T03:35:15;4.65;;;3.32;;
73132;SDS011;61320;52.008;4.530;2023-09-19T03:37:44;4.87;;;3.51;;
73132;SDS011;61320;52.008;4.530;2023-09-19T03:40:09;4.48;;;3.18;;
73132;SDS011;61320;52.008;4.530;2023-09-19T03:42:42;4.79;;;3.35;;
73132;SDS011;61320;52.008;4.530;2023-09-19T03:45:07;5.13;;;3.68;;
73132;SDS011;61320;52.008;4.530;2023-09-19T03:47:38;5.04;;;3.55;;
73132;SDS011;61320;52.008;4.530;2023-09-19T03:50:04;5.17;;;3.62;;
73132;SDS011;61320;52.008;4.530;2023-09-19T03:52:33;5.15;;;3.59;;
73132;SDS011;61320;52.008;4.530;2023-09-19T03:54:58;5.76;;;3.99;;
73132;SDS011;61320;52.008;4.530;2023-09-19T03:57:24;6.06;;;4.26;;
73132;SDS011;61320;52.008;4.530;2023-09-19T03:59:50;5.28;;;3.80;;
73132;SDS011;61320;52.008;4.530;2023-09-19T04:02:18;5.92;;;4.24;;
73132;SDS011;61320;52.008;4.530;2023-09-19T04:04:51;5.86;;;4.18;;
73132;SDS011;61320;52.008;4.530;2023-09-19T04:07:17;6.36;;;4.54;;
73132;SDS011;61320;52.008;4.530;2023-09-19T04:09:44;5.77;;;4.06;;
73132;SDS011;61320;52.008;4.530;2023-09-19T04:12:10;5.64;;;3.95;;
73132;SDS011;61320;52.008;4.530;2023-09-19T04:14:37;5.81;;;4.09;;
73132;SDS011;61320;52.008;4.530;2023-09-19T04:17:03;6.10;;;4.30;;
73132;SDS011;61320;52.008;4.530;2023-09-19T04:19:30;5.30;;;3.74;;
73132;SDS011;61320;52.008;4.530;2023-09-19T04:21:55;5.87;;;4.21;;
73132;SDS011;61320;52.008;4.530;2023-09-19T04:24:21;5.96;;;4.17;;
73132;SDS011;61320;52.008;4.530;2023-09-19T04:26:46;6.36;;;4.43;;
73132;SDS011;61320;52.008;4.530;2023-09-19T04:29:13;6.13;;;4.24;;
73132;SDS011;61320;52.008;4.530;2023-09-19T04:31:40;6.00;;;4.25;;
73132;SDS011;61320;52.008;4.530;2023-09-19T04:34:06;5.73;;;4.04;;
73132;SDS011;61320;52.008;4.530;2023-09-19T04:36:35;5.37;;;3.74;;
73132;SDS011;61320;52.008;4.530;2023-09-19T04:39:02;5.56;;;3.85;;
73132;SDS011;61320;52.008;4.530;2023-09-19T04:41:32;5.66;;;3.98;;
73132;SDS011;61320;52.008;4.530;2023-09-19T04:43:59;5.52;;;3.83;;
73132;SDS011;61320;52.008;4.530;2023-09-19T04:46:24;5.67;;;3.87;;
73132;SDS011;61320;52.008;4.530;2023-09-19T04:48:50;5.51;;;3.83;;
73132;SDS011;61320;52.008;4.530;2023-09-19T04:51:15;5.88;;;4.12;;
73132;SDS011;61320;52.008;4.530;2023-09-19T04:53:41;5.21;;;3.73;;
73132;SDS011;61320;52.008;4.530;2023-09-19T04:56:07;4.89;;;3.52;;
73132;SDS011;61320;52.008;4.530;2023-09-19T04:58:33;5.82;;;4.17;;
73132;SDS011;61320;52.008;4.530;2023-09-19T05:00:59;5.58;;;4.01;;
73132;SDS011;61320;52.008;4.530;2023-09-19T05:03:24;5.68;;;4.05;;
73132;SDS011;61320;52.008;4.530;2023-09-19T05:05:50;5.94;;;4.19;;
73132;SDS011;61320;52.008;4.530;2023-09-19T05:08:15;5.13;;;3.71;;
73132;SDS011;61320;52.008;4.530;2023-09-19T05:10:41;5.47;;;3.98;;
73132;SDS011;61320;52.008;4.530;2023-09-19T05:13:06;5.67;;;4.13;;
73132;SDS011;61320;52.008;4.530;2023-09-19T05:15:33;5.43;;;3.91;;
73132;SDS011;61320;52.008;4.530;2023-09-19T05:18:00;5.56;;;3.99;;
73132;SDS011;61320;52.008;4.530;2023-09-19T05:20:26;5.71;;;4.03;;
73132;SDS011;61320;52.008;4.530;2023-09-19T05:23:02;6.04;;;4.20;;
73132;SDS011;61320;52.008;4.530;2023-09-19T05:25:37;5.76;;;4.06;;
73132;SDS011;61320;52.008;4.530;2023-09-19T05:28:08;5.85;;;4.13;;
73132;SDS011;61320;52.008;4.530;2023-09-19T05:30:36;6.89;;;4.82;;
73132;SDS011;61320;52.008;4.530;2023-09-19T05:33:03;5.63;;;4.04;;
73132;SDS011;61320;52.008;4.530;2023-09-19T05:35:30;5.38;;;3.91;;
73132;SDS011;61320;52.008;4.530;2023-09-19T05:37:56;5.62;;;4.04;;
73132;SDS011;61320;52.008;4.530;2023-09-19T05:40:23;5.57;;;4.07;;
73132;SDS011;61320;52.008;4.530;2023-09-19T05:42:49;5.52;;;3.98;;
73132;SDS011;61320;52.008;4.530;2023-09-19T05:45:16;6.19;;;4.39;;
73132;SDS011;61320;52.008;4.530;2023-09-19T05:47:50;5.95;;;4.21;;
73132;SDS011;61320;52.008;4.530;2023-09-19T05:50:20;6.92;;;4.87;;
73132;SDS011;61320;52.008;4.530;2023-09-19T05:52:53;7.20;;;5.01;;
73132;SDS011;61320;52.008;4.530;2023-09-19T05:55:21;7.63;;;5.22;;
73132;SDS011;61320;52.008;4.530;2023-09-19T05:57:50;7.16;;;4.90;;
73132;SDS011;61320;52.008;4.530;2023-09-19T06:00:17;6.98;;;4.84;;
73132;SDS011;61320;52.008;4.530;2023-09-19T06:02:54;6.41;;;4.54;;
73132;SDS011;61320;52.008;4.530;2023-09-19T06:05:22;7.26;;;5.01;;
73132;SDS011;61320;52.008;4.530;2023-09-19T06:07:49;6.71;;;4.61;;
73132;SDS011;61320;52.008;4.530;2023-09-19T06:10:15;6.83;;;4.75;;
73132;SDS011;61320;52.008;4.530;2023-09-19T06:12:42;7.46;;;5.20;;
73132;SDS011;61320;52.008;4.530;2023-09-19T06:15:09;7.38;;;5.10;;
73132;SDS011;61320;52.008;4.530;2023-09-19T06:17:40;6.47;;;4.47;;
73132;SDS011;61320;52.008;4.530;2023-09-19T06:20:06;6.90;;;4.84;;
73132;SDS011;61320;52.008;4.530;2023-09-19T06:22:39;7.05;;;4.97;;
73132;SDS011;61320;52.008;4.530;2023-09-19T06:25:09;7.35;;;5.19;;
73132;SDS011;61320;52.008;4.530;2023-09-19T06:27:51;7.51;;;5.22;;
73132;SDS011;61320;52.008;4.530;2023-09-19T06:30:19;7.39;;;5.07;;
73132;SDS011;61320;52.008;4.530;2023-09-19T06:32:46;6.62;;;4.66;;
73132;SDS011;61320;52.008;4.530;2023-09-19T06:35:14;7.17;;;4.95;;
73132;SDS011;61320;52.008;4.530;2023-09-19T06:37:41;7.38;;;5.04;;
73132;SDS011;61320;52.008;4.530;2023-09-19T06:40:08;7.72;;;5.22;;
73132;SDS011;61320;52.008;4.530;2023-09-19T06:42:44;8.09;;;5.50;;
73132;SDS011;61320;52.008;4.530;2023-09-19T06:45:15;7.67;;;5.20;;
73132;SDS011;61320;52.008;4.530;2023-09-19T06:47:48;7.90;;;5.44;;
73132;SDS011;61320;52.008;4.530;2023-09-19T06:50:19;7.60;;;5.32;;
73132;SDS011;61320;52.008;4.530;2023-09-19T06:52:53;8.00;;;5.57;;
73132;SDS011;61320;52.008;4.530;2023-09-19T06:55:22;7.36;;;5.09;;
73132;SDS011;61320;52.008;4.530;2023-09-19T06:57:53;7.02;;;4.88;;
73132;SDS011;61320;52.008;4.530;2023-09-19T07:00:20;6.90;;;4.86;;
73132;SDS011;61320;52.008;4.530;2023-09-19T07:03:01;7.29;;;5.04;;
73132;SDS011;61320;52.008;4.530;2023-09-19T07:05:32;8.17;;;5.65;;
73132;SDS011;61320;52.008;4.530;2023-09-19T07:08:02;7.16;;;5.02;;
73132;SDS011;61320;52.008;4.530;2023-09-19T07:10:29;6.81;;;4.86;;
73132;SDS011;61320;52.008;4.530;2023-09-19T07:15:29;7.64;;;5.28;;
73132;SDS011;61320;52.008;4.530;2023-09-19T07:18:01;7.35;;;5.06;;
73132;SDS011;61320;52.008;4.530;2023-09-19T07:20:27;7.14;;;5.00;;
73132;SDS011;61320;52.008;4.530;2023-09-19T07:22:56;7.95;;;5.53;;
73132;SDS011;61320;52.008;4.530;2023-09-19T07:25:25;8.79;;;5.99;;
73132;SDS011;61320;52.008;4.530;2023-09-19T07:27:51;8.76;;;5.89;;
73132;SDS011;61320;52.008;4.530;2023-09-19T07:30:16;8.51;;;5.71;;
73132;SDS011;61320;52.008;4.530;2023-09-19T07:32:42;8.35;;;5.74;;
73132;SDS011;61320;52.008;4.530;2023-09-19T07:35:07;7.91;;;5.52;;
73132;SDS011;61320;52.008;4.530;2023-09-19T07:37:33;8.04;;;5.58;;
73132;SDS011;61320;52.008;4.530;2023-09-19T07:40:01;8.10;;;5.53;;
73132;SDS011;61320;52.008;4.530;2023-09-19T07:42:28;9.24;;;6.27;;
73132;SDS011;61320;52.008;4.530;2023-09-19T07:44:53;8.36;;;5.74;;
73132;SDS011;61320;52.008;4.530;2023-09-19T07:47:19;8.97;;;6.14;;
73132;SDS011;61320;52.008;4.530;2023-09-19T07:49:46;9.50;;;6.50;;
73132;SDS011;61320;52.008;4.530;2023-09-19T07:52:13;8.28;;;5.76;;
73132;SDS011;61320;52.008;4.530;2023-09-19T07:54:38;7.43;;;5.24;;
73132;SDS011;61320;52.008;4.530;2023-09-19T07:57:09;8.09;;;5.50;;
73132;SDS011;61320;52.008;4.530;2023-09-19T07:59:37;9.21;;;6.20;;
73132;SDS011;61320;52.008;4.530;2023-09-19T08:02:04;9.09;;;6.26;;
73132;SDS011;61320;52.008;4.530;2023-09-19T08:04:30;9.01;;;6.12;;
73132;SDS011;61320;52.008;4.530;2023-09-19T08:06:58;9.03;;;6.05;;
73132;SDS011;61320;52.008;4.530;2023-09-19T08:09:25;8.06;;;5.54;;
73132;SDS011;61320;52.008;4.530;2023-09-19T08:11:51;8.21;;;5.68;;
73132;SDS011;61320;52.008;4.530;2023-09-19T08:14:17;7.69;;;5.40;;
73132;SDS011;61320;52.008;4.530;2023-09-19T08:16:43;8.25;;;5.75;;
73132;SDS011;61320;52.008;4.530;2023-09-19T08:19:11;8.52;;;5.77;;
73132;SDS011;61320;52.008;4.530;2023-09-19T08:21:37;8.45;;;5.82;;
73132;SDS011;61320;52.008;4.530;2023-09-19T08:24:02;7.76;;;5.46;;
73132;SDS011;61320;52.008;4.530;2023-09-19T08:26:31;7.75;;;5.43;;
73132;SDS011;61320;52.008;4.530;2023-09-19T08:28:57;7.13;;;5.07;;
73132;SDS011;61320;52.008;4.530;2023-09-19T08:31:23;7.10;;;5.09;;
73132;SDS011;61320;52.008;4.530;2023-09-19T08:33:48;6.79;;;4.83;;
73132;SDS011;61320;52.008;4.530;2023-09-19T08:36:16;7.51;;;5.36;;
73132;SDS011;61320;52.008;4.530;2023-09-19T08:38:41;6.99;;;4.90;;
73132;SDS011;61320;52.008;4.530;2023-09-19T08:41:07;7.19;;;5.05;;
73132;SDS011;61320;52.008;4.530;2023-09-19T08:43:34;7.49;;;5.25;;
73132;SDS011;61320;52.008;4.530;2023-09-19T08:48:39;7.09;;;5.02;;
73132;SDS011;61320;52.008;4.530;2023-09-19T08:51:16;7.55;;;5.14;;
73132;SDS011;61320;52.008;4.530;2023-09-19T08:53:49;7.69;;;5.25;;
73132;SDS011;61320;52.008;4.530;2023-09-19T08:56:18;7.81;;;5.40;;
73132;SDS011;61320;52.008;4.530;2023-09-19T09:01:14;8.89;;;6.00;;
73132;SDS011;61320;52.008;4.530;2023-09-19T09:03:41;8.60;;;5.67;;
73132;SDS011;61320;52.008;4.530;2023-09-19T09:06:11;9.32;;;6.13;;
73132;SDS011;61320;52.008;4.530;2023-09-19T09:08:40;9.17;;;6.09;;
73132;SDS011;61320;52.008;4.530;2023-09-19T09:11:07;8.55;;;5.76;;
73132;SDS011;61320;52.008;4.530;2023-09-19T09:13:34;8.76;;;5.95;;
73132;SDS011;61320;52.008;4.530;2023-09-19T09:16:01;8.36;;;5.73;;
73132;SDS011;61320;52.008;4.530;2023-09-19T09:18:28;7.63;;;5.31;;
73132;SDS011;61320;52.008;4.530;2023-09-19T09:20:55;7.65;;;5.28;;
73132;SDS011;61320;52.008;4.530;2023-09-19T09:23:21;8.10;;;5.46;;
73132;SDS011;61320;52.008;4.530;2023-09-19T09:25:56;9.11;;;6.12;;
73132;SDS011;61320;52.008;4.530;2023-09-19T09:28:23;7.31;;;5.03;;
73132;SDS011;61320;52.008;4.530;2023-09-19T09:30:50;8.45;;;5.90;;
73132;SDS011;61320;52.008;4.530;2023-09-19T09:33:16;8.00;;;5.47;;
73132;SDS011;61320;52.008;4.530;2023-09-19T09:38:20;7.94;;;5.35;;
73132;SDS011;61320;52.008;4.530;2023-09-19T09:40:51;7.36;;;5.16;;
73132;SDS011;61320;52.008;4.530;2023-09-19T09:43:35;7.62;;;5.26;;
73132;SDS011;61320;52.008;4.530;2023-09-19T09:46:16;8.22;;;5.60;;
73132;SDS011;61320;52.008;4.530;2023-09-19T09:48:45;7.50;;;5.12;;
73132;SDS011;61320;52.008;4.530;2023-09-19T09:51:32;6.48;;;4.52;;
73132;SDS011;61320;52.008;4.530;2023-09-19T09:54:14;6.63;;;4.76;;
73132;SDS011;61320;52.008;4.530;2023-09-19T09:57:00;6.35;;;4.62;;
73132;SDS011;61320;52.008;4.530;2023-09-19T10:02:27;6.41;;;4.61;;
73132;SDS011;61320;52.008;4.530;2023-09-19T10:04:55;5.87;;;4.15;;
73132;SDS011;61320;52.008;4.530;2023-09-19T10:07:27;6.55;;;4.58;;
73132;SDS011;61320;52.008;4.530;2023-09-19T10:10:06;6.84;;;4.82;;
73132;SDS011;61320;52.008;4.530;2023-09-19T10:12:53;4.67;;;3.46;;
73132;SDS011;61320;52.008;4.530;2023-09-19T10:15:27;5.76;;;4.25;;
73132;SDS011;61320;52.008;4.530;2023-09-19T10:17:57;5.72;;;4.27;;
73132;SDS011;61320;52.008;4.530;2023-09-19T10:20:26;4.70;;;3.45;;
73132;SDS011;61320;52.008;4.530;2023-09-19T10:23:00;5.04;;;3.66;;
73132;SDS011;61320;52.008;4.530;2023-09-19T10:25:29;4.85;;;3.55;;
73132;SDS011;61320;52.008;4.530;2023-09-19T10:27:59;5.41;;;4.04;;
73132;SDS011;61320;52.008;4.530;2023-09-19T10:30:30;5.09;;;3.76;;
73132;SDS011;61320;52.008;4.530;2023-09-19T10:33:00;4.97;;;3.66;;
73132;SDS011;61320;52.008;4.530;2023-09-19T10:35:27;5.12;;;3.83;;
73132;SDS011;61320;52.008;4.530;2023-09-19T10:37:54;5.21;;;3.79;;
73132;SDS011;61320;52.008;4.530;2023-09-19T10:40:24;4.89;;;3.51;;
73132;SDS011;61320;52.008;4.530;2023-09-19T10:43:00;5.05;;;3.64;;
73132;SDS011;61320;52.008;4.530;2023-09-19T10:45:30;5.01;;;3.49;;
73132;SDS011;61320;52.008;4.530;2023-09-19T10:48:03;5.87;;;4.03;;
73132;SDS011;61320;52.008;4.530;2023-09-19T10:50:32;4.66;;;3.20;;
73132;SDS011;61320;52.008;4.530;2023-09-19T10:53:16;4.28;;;3.04;;
73132;SDS011;61320;52.008;4.530;2023-09-19T10:55:58;4.68;;;3.40;;
73132;SDS011;61320;52.008;4.530;2023-09-19T10:58:28;4.39;;;3.18;;
73132;SDS011;61320;52.008;4.530;2023-09-19T11:00:59;4.78;;;3.45;;
73132;SDS011;61320;52.008;4.530;2023-09-19T11:03:31;4.45;;;3.17;;
73132;SDS011;61320;52.008;4.530;2023-09-19T11:06:05;5.08;;;3.55;;
73132;SDS011;61320;52.008;4.530;2023-09-19T11:08:56;5.05;;;3.53;;
73132;SDS011;61320;52.008;4.530;2023-09-19T11:16:39;4.66;;;3.34;;
73132;SDS011;61320;52.008;4.530;2023-09-19T11:19:04;4.20;;;3.02;;
73132;SDS011;61320;52.008;4.530;2023-09-19T11:26:47;4.28;;;3.09;;
73132;SDS011;61320;52.008;4.530;2023-09-19T11:29:26;4.30;;;3.08;;
73132;SDS011;61320;52.008;4.530;2023-09-19T11:31:54;3.98;;;2.89;;
73132;SDS011;61320;52.008;4.530;2023-09-19T11:40:06;3.82;;;2.74;;
73132;SDS011;61320;52.008;4.530;2023-09-19T11:42:47;4.33;;;3.12;;
73132;SDS011;61320;52.008;4.530;2023-09-19T11:48:15;4.13;;;3.11;;
73132;SDS011;61320;52.008;4.530;2023-09-19T11:50:43;3.61;;;2.72;;
73132;SDS011;61320;52.008;4.530;2023-09-19T11:53:13;3.45;;;2.64;;
73132;SDS011;61320;52.008;4.530;2023-09-19T11:55:42;3.37;;;2.57;;
73132;SDS011;61320;52.008;4.530;2023-09-19T11:58:08;4.00;;;2.93;;
73132;SDS011;61320;52.008;4.530;2023-09-19T12:00:37;3.73;;;2.73;;
73132;SDS011;61320;52.008;4.530;2023-09-19T12:03:08;3.59;;;2.66;;
73132;SDS011;61320;52.008;4.530;2023-09-19T12:05:39;4.25;;;3.18;;
73132;SDS011;61320;52.008;4.530;2023-09-19T12:08:05;3.95;;;2.92;;
73132;SDS011;61320;52.008;4.530;2023-09-19T12:10:54;3.54;;;2.69;;
73132;SDS011;61320;52.008;4.530;2023-09-19T12:13:20;3.48;;;2.67;;
73132;SDS011;61320;52.008;4.530;2023-09-19T12:15:46;3.25;;;2.54;;
73132;SDS011;61320;52.008;4.530;2023-09-19T12:18:27;3.25;;;2.49;;
73132;SDS011;61320;52.008;4.530;2023-09-19T12:20:54;3.50;;;2.72;;
73132;SDS011;61320;52.008;4.530;2023-09-19T12:23:21;3.34;;;2.64;;
73132;SDS011;61320;52.008;4.530;2023-09-19T12:25:46;3.44;;;2.75;;
73132;SDS011;61320;52.008;4.530;2023-09-19T12:28:14;3.33;;;2.62;;
73132;SDS011;61320;52.008;4.530;2023-09-19T12:30:41;3.54;;;2.75;;
73132;SDS011;61320;52.008;4.530;2023-09-19T12:33:20;3.89;;;3.05;;
73132;SDS011;61320;52.008;4.530;2023-09-19T12:35:46;3.61;;;2.78;;
73132;SDS011;61320;52.008;4.530;2023-09-19T12:38:25;3.93;;;3.00;;
73132;SDS011;61320;52.008;4.530;2023-09-19T12:40:58;3.35;;;2.58;;
73132;SDS011;61320;52.008;4.530;2023-09-19T12:43:25;3.60;;;2.79;;
73132;SDS011;61320;52.008;4.530;2023-09-19T12:45:53;3.05;;;2.45;;
73132;SDS011;61320;52.008;4.530;2023-09-19T12:51:00;3.10;;;2.48;;
73132;SDS011;61320;52.008;4.530;2023-09-19T12:56:12;3.39;;;2.66;;
73132;SDS011;61320;52.008;4.530;2023-09-19T12:58:55;3.65;;;2.82;;
73132;SDS011;61320;52.008;4.530;2023-09-19T13:01:24;3.31;;;2.62;;
73132;SDS011;61320;52.008;4.530;2023-09-19T13:04:10;3.28;;;2.63;;
73132;SDS011;61320;52.008;4.530;2023-09-19T13:06:51;3.23;;;2.56;;
73132;SDS011;61320;52.008;4.530;2023-09-19T13:09:18;3.66;;;2.89;;
73132;SDS011;61320;52.008;4.530;2023-09-19T13:11:46;3.82;;;2.97;;
73132;SDS011;61320;52.008;4.530;2023-09-19T13:17:01;3.79;;;2.98;;
73132;SDS011;61320;52.008;4.530;2023-09-19T13:19:42;3.55;;;2.82;;
73132;SDS011;61320;52.008;4.530;2023-09-19T13:25:10;3.31;;;2.66;;
73132;SDS011;61320;52.008;4.530;2023-09-19T13:27:52;3.06;;;2.51;;
73132;SDS011;61320;52.008;4.530;2023-09-19T13:30:21;3.24;;;2.69;;
73132;SDS011;61320;52.008;4.530;2023-09-19T13:32:51;4.04;;;3.26;;
73132;SDS011;61320;52.008;4.530;2023-09-19T13:35:18;3.90;;;3.18;;
73132;SDS011;61320;52.008;4.530;2023-09-19T13:37:44;3.88;;;3.17;;
73132;SDS011;61320;52.008;4.530;2023-09-19T13:40:14;3.57;;;2.97;;
73132;SDS011;61320;52.008;4.530;2023-09-19T13:42:41;3.77;;;3.12;;
73132;SDS011;61320;52.008;4.530;2023-09-19T13:45:07;3.87;;;3.23;;
73132;SDS011;61320;52.008;4.530;2023-09-19T13:47:37;3.96;;;3.26;;
73132;SDS011;61320;52.008;4.530;2023-09-19T13:50:03;3.98;;;3.26;;
73132;SDS011;61320;52.008;4.530;2023-09-19T13:52:30;3.88;;;3.23;;
73132;SDS011;61320;52.008;4.530;2023-09-19T13:54:56;3.87;;;3.25;;
73132;SDS011;61320;52.008;4.530;2023-09-19T13:57:26;3.85;;;3.20;;
73132;SDS011;61320;52.008;4.530;2023-09-19T13:59:52;3.95;;;3.22;;
73132;SDS011;61320;52.008;4.530;2023-09-19T14:02:21;4.17;;;3.36;;
73132;SDS011;61320;52.008;4.530;2023-09-19T14:04:50;4.24;;;3.46;;
73132;SDS011;61320;52.008;4.530;2023-09-19T14:07:16;4.17;;;3.42;;
73132;SDS011;61320;52.008;4.530;2023-09-19T14:09:43;4.22;;;3.52;;
73132;SDS011;61320;52.008;4.530;2023-09-19T14:12:08;4.17;;;3.46;;
73132;SDS011;61320;52.008;4.530;2023-09-19T14:14:34;4.19;;;3.49;;
73132;SDS011;61320;52.008;4.530;2023-09-19T14:17:00;4.24;;;3.51;;
73132;SDS011;61320;52.008;4.530;2023-09-19T14:19:29;4.26;;;3.61;;
73132;SDS011;61320;52.008;4.530;2023-09-19T14:21:55;4.44;;;3.73;;
73132;SDS011;61320;52.008;4.530;2023-09-19T14:24:21;4.62;;;3.87;;
73132;SDS011;61320;52.008;4.530;2023-09-19T14:26:47;4.28;;;3.68;;
73132;SDS011;61320;52.008;4.530;2023-09-19T14:29:14;4.23;;;3.66;;
73132;SDS011;61320;52.008;4.530;2023-09-19T14:31:41;3.92;;;3.48;;
73132;SDS011;61320;52.008;4.530;2023-09-19T14:34:07;4.25;;;3.68;;
73132;SDS011;61320;52.008;4.530;2023-09-19T14:36:37;4.19;;;3.60;;
73132;SDS011;61320;52.008;4.530;2023-09-19T14:39:06;4.68;;;3.98;;
73132;SDS011;61320;52.008;4.530;2023-09-19T14:41:33;4.54;;;3.84;;
73132;SDS011;61320;52.008;4.530;2023-09-19T14:43:58;4.32;;;3.64;;
73132;SDS011;61320;52.008;4.530;2023-09-19T14:46:24;4.49;;;3.84;;
73132;SDS011;61320;52.008;4.530;2023-09-19T14:48:53;4.31;;;3.67;;
73132;SDS011;61320;52.008;4.530;2023-09-19T14:51:19;4.35;;;3.78;;
73132;SDS011;61320;52.008;4.530;2023-09-19T14:53:45;4.32;;;3.73;;
73132;SDS011;61320;52.008;4.530;2023-09-19T14:56:12;4.36;;;3.76;;
73132;SDS011;61320;52.008;4.530;2023-09-19T14:58:41;4.16;;;3.65;;
73132;SDS011;61320;52.008;4.530;2023-09-19T15:01:10;4.20;;;3.75;;
73132;SDS011;61320;52.008;4.530;2023-09-19T15:03:38;4.40;;;3.87;;
73132;SDS011;61320;52.008;4.530;2023-09-19T15:06:05;4.58;;;3.99;;
73132;SDS011;61320;52.008;4.530;2023-09-19T15:08:34;4.69;;;4.04;;
73132;SDS011;61320;52.008;4.530;2023-09-19T15:11:03;4.26;;;3.70;;
73132;SDS011;61320;52.008;4.530;2023-09-19T15:13:30;4.73;;;4.03;;
73132;SDS011;61320;52.008;4.530;2023-09-19T15:16:04;5.10;;;4.31;;
73132;SDS011;61320;52.008;4.530;2023-09-19T15:18:34;5.13;;;4.28;;
73132;SDS011;61320;52.008;4.530;2023-09-19T15:21:04;5.20;;;4.27;;
73132;SDS011;61320;52.008;4.530;2023-09-19T15:23:31;5.72;;;4.65;;
73132;SDS011;61320;52.008;4.530;2023-09-19T15:26:02;4.67;;;3.96;;
73132;SDS011;61320;52.008;4.530;2023-09-19T15:28:29;5.09;;;4.39;;
73132;SDS011;61320;52.008;4.530;2023-09-19T15:31:04;4.63;;;3.97;;
73132;SDS011;61320;52.008;4.530;2023-09-19T15:33:34;4.83;;;4.17;;
73132;SDS011;61320;52.008;4.530;2023-09-19T15:36:13;4.97;;;4.31;;
73132;SDS011;61320;52.008;4.530;2023-09-19T15:41:34;4.33;;;3.77;;
73132;SDS011;61320;52.008;4.530;2023-09-19T15:44:10;4.72;;;4.03;;
73132;SDS011;61320;52.008;4.530;2023-09-19T15:46:37;4.72;;;4.13;;
73132;SDS011;61320;52.008;4.530;2023-09-19T15:49:02;4.68;;;4.07;;
73132;SDS011;61320;52.008;4.530;2023-09-19T15:51:29;4.70;;;4.06;;
73132;SDS011;61320;52.008;4.530;2023-09-19T15:53:55;4.85;;;4.15;;
73132;SDS011;61320;52.008;4.530;2023-09-19T15:56:22;4.17;;;3.59;;
73132;SDS011;61320;52.008;4.530;2023-09-19T15:58:53;4.40;;;3.82;;
73132;SDS011;61320;52.008;4.530;2023-09-19T16:01:20;4.78;;;4.17;;
73132;SDS011;61320;52.008;4.530;2023-09-19T16:03:47;4.34;;;3.83;;